Norbank — PGIS — position and weather

sailwx.info

Track history (hours):
 
Tides and Currents Weather Stations Pressure Air Temp Water Temp Dewpoint Dewpoint Depression Visibility Wind Speed Wind Dir Waves Ship Positions

Norbank

Operator: P & O Ferries

Last reported at 2019-Dec-15 03:30 UTC. Time now 2019-Dec-15 11:23 UTC.
Position N 53°22' W 005°56'.

Length 167 m; draft 5.5 m.

Type: Ship (hazmat cat A). MMSI: 246213000.

Date/timePositionNaut miles runAvg speedWind from/ knotsBaromVisibWave heightAir tempDewpointWater temp
2019-Dec-15 03:30N 53°22' W 005°56'815.1
2019-Dec-15 03:00N 53°21' W 006°09'3 1.2
2019-Dec-15 00:52N 53°21' W 006°13'0 0.0
2019-Dec-15 00:00N 53°21' W 006°13'0 0.0
2019-Dec-14 23:30N 53°21' W 006°13'8714.5
2019-Dec-14 17:30N 53°34' W 003°49'2914.5
2019-Dec-14 15:30N 53°27' W 003°01'0 0.0
2019-Dec-14 15:00N 53°27' W 003°01'0 0.8
2019-Dec-14 14:30N 53°27' W 003°01'0 0.0
2019-Dec-14 12:29N 53°27' W 003°01'0 0.0
2019-Dec-14 10:28N 53°27' W 003°01'0 0.0
2019-Dec-14 09:30N 53°27' W 003°01'0 0.0
2019-Dec-14 06:59N 53°27' W 003°01'0 0.0
2019-Dec-14 06:29N 53°27' W 003°01'0 0.9
2019-Dec-14 06:00N 53°27' W 003°01'1 1.2
2019-Dec-14 05:00N 53°28' W 003°03'713.2
2019-Dec-14 04:30N 53°31' W 003°12'1817.5
2019-Dec-14 03:30N 53°31' W 003°41'917.5
2019-Dec-14 03:00N 53°33' W 003°56'8017.7
2019-Dec-13 22:30N 53°21' W 006°08'3 1.5
2019-Dec-13 20:23N 53°21' W 006°13'0 0.1
2019-Dec-13 18:30N 53°21' W 006°13'9216.8
2019-Dec-13 13:00N 53°33' W 003°40'24 5.2
2019-Dec-13 08:28N 53°27' W 003°01'0 0.0
2019-Dec-13 07:00N 53°27' W 003°01'0 0.0
2019-Dec-13 06:30N 53°27' W 003°01'0 0.9
2019-Dec-13 06:00N 53°27' W 003°01'11 7.4
2019-Dec-13 04:30N 53°31' W 003°18'10512.1
2019-Dec-12 19:50N 53°21' W 006°13'8911.5
2019-Dec-12 12:06N 53°33' W 003°45'2119.1
2019-Dec-12 11:00N 53°32' W 003°10'714.4
2019-Dec-12 10:30N 53°27' W 003°01'1 0.3
2019-Dec-12 08:58N 53°27' W 003°01'0 0.0
2019-Dec-12 07:30N 53°27' W 003°01'0 0.0
2019-Dec-12 06:01N 53°27' W 003°01'9 5.7
2019-Dec-12 04:30N 53°31' W 003°14'10417.4
2019-Dec-11 22:31N 53°21' W 006°08'3 2.1
2019-Dec-11 21:00N 53°21' W 006°13'0 0.0
2019-Dec-11 19:09N 53°21' W 006°13'11514.1
2019-Dec-11 11:01N 53°27' W 003°01'0 0.1
2019-Dec-11 08:59N 53°27' W 003°01'0 0.0
2019-Dec-11 07:25N 53°27' W 003°01'1 0.4
2019-Dec-11 06:00N 53°27' W 003°01'13 9.0
2019-Dec-11 04:30N 53°31' W 003°23'1515.1
2019-Dec-11 03:30N 53°32' W 003°48'815.4
2019-Dec-11 03:00N 53°33' W 004°01'6915.4
2019-Dec-10 22:33N 53°22' W 005°55'815.2
2019-Dec-10 22:00N 53°21' W 006°08'3 1.7
2019-Dec-10 20:17N 53°21' W 006°13'0 0.0
2019-Dec-10 18:13N 53°21' W 006°13'10 5.9
2019-Dec-10 16:30N 53°23' W 005°57'7417.4
2019-Dec-10 12:15N 53°34' W 003°53'1418.8
2019-Dec-10 11:30N 53°33' W 003°30'1717.0
2019-Dec-10 10:31N 53°28' W 003°03'1 1.2
2019-Dec-10 09:28N 53°27' W 003°01'0 0.0
2019-Dec-10 08:58N 53°27' W 003°01'0 0.0
2019-Dec-10 06:30N 53°27' W 003°01'1 0.3
2019-Dec-10 04:31N 53°27' W 003°02'1312.9
2019-Dec-10 03:30N 53°31' W 003°22'815.3
2019-Dec-10 03:00N 53°31' W 003°35'1515.3
2019-Dec-10 02:00N 53°33' W 004°01'7217.3
2019-Dec-09 21:51N 53°21' W 005°60'8 9.4
2019-Dec-09 21:00N 53°21' W 006°13'0 0.0
2019-Dec-09 20:30N 53°21' W 006°13'0 0.0
2019-Dec-09 19:50N 53°21' W 006°13'0 0.0
2019-Dec-09 17:46N 53°21' W 006°13'0 0.0
2019-Dec-09 06:46N 53°21' W 006°13'0 0.0
2019-Dec-09 04:18N 53°21' W 006°13'0 0.0
2019-Dec-09 03:30N 53°21' W 006°13'0 0.0
2019-Dec-08 22:28N 53°21' W 006°13'0 0.0
2019-Dec-08 20:30N 53°21' W 006°13'0 0.0
2019-Dec-08 19:53N 53°21' W 006°13'0 0.0
2019-Dec-08 17:50N 53°21' W 006°13'2 2.0
2019-Dec-08 17:00N 53°21' W 006°10'9616.1
2019-Dec-08 11:01N 53°33' W 003°30'1716.6
2019-Dec-08 10:01N 53°28' W 003°03'2 1.6
2019-Dec-08 08:59N 53°27' W 003°01'15 2.7
2019-Dec-08 03:31N 53°31' W 003°25'817.0
2019-Dec-08 03:01N 53°31' W 003°39'917.1
2019-Dec-08 02:31N 53°31' W 003°54'8416.7
2019-Dec-07 21:30N 53°21' W 006°13'0 0.0
2019-Dec-07 20:30N 53°21' W 006°13'11411.4
2019-Dec-07 10:31N 53°28' W 003°03'1 1.1
2019-Dec-07 09:30N 53°27' W 003°01'0 0.0
2019-Dec-07 08:27N 53°27' W 003°01'0 0.0
2019-Dec-07 07:00N 53°27' W 003°01'0 0.0
2019-Dec-07 06:29N 53°27' W 003°01'1 0.3
2019-Dec-07 04:31N 53°27' W 003°02'2617.2
2019-Dec-07 03:01N 53°31' W 003°45'8916.1
2019-Dec-06 21:30N 53°21' W 006°13'0 0.0
2019-Dec-06 20:54N 53°21' W 006°13'0 0.0
2019-Dec-06 20:00N 53°21' W 006°13'0 0.0
2019-Dec-06 19:29N 53°21' W 006°13'0 0.0
2019-Dec-06 17:53N 53°21' W 006°13'2 2.2
2019-Dec-06 17:00N 53°21' W 006°10'1615.3
2019-Dec-06 15:57N 53°25' W 005°44'6916.8
2019-Dec-06 11:52N 53°34' W 003°50'1618.7
2019-Dec-06 11:00N 53°33' W 003°22'14 3.4
2019-Dec-06 06:59N 53°27' W 003°01'0 0.0
2019-Dec-06 06:29N 53°27' W 003°01'2 1.0
2019-Dec-06 04:31N 53°28' W 003°04'10817.9
2019-Dec-05 22:30N 53°20' W 006°04'6 1.8
2019-Dec-05 19:30N 53°21' W 006°13'0 0.0
2019-Dec-05 18:18N 53°21' W 006°13'2 2.5
2019-Dec-05 17:30N 53°21' W 006°10'8116.3
2019-Dec-05 12:32N 53°34' W 003°55'33 9.3
2019-Dec-05 08:59N 53°27' W 003°01'0 0.0
2019-Dec-05 06:00N 53°27' W 003°01'0 0.6
2019-Dec-05 05:30N 53°27' W 003°01'0 0.4
2019-Dec-05 05:00N 53°27' W 003°01'  
Track history (hours):
 
Tides and Currents Weather Stations Pressure Air Temp Water Temp Dewpoint Dewpoint Depression Visibility Wind Speed Wind Dir Waves Ship Positions

Norbank

Operator: P & O Ferries

Last reported at 2019-Dec-15 03:30 UTC. Time now 2019-Dec-15 11:23 UTC.
Position N 53°22' W 005°56'.

Length 167 m; draft 5.5 m.

Type: Ship (hazmat cat A). MMSI: 246213000.

Date/timePositionNaut miles runAvg speedWind from/ knotsBaromVisibWave heightAir tempDewpointWater temp
2019-Dec-15 03:30N 53°22' W 005°56'815.1
2019-Dec-15 03:00N 53°21' W 006°09'3 1.2
2019-Dec-15 00:52N 53°21' W 006°13'0 0.0
2019-Dec-15 00:00N 53°21' W 006°13'0 0.0
2019-Dec-14 23:30N 53°21' W 006°13'8714.5
2019-Dec-14 17:30N 53°34' W 003°49'2914.5
2019-Dec-14 15:30N 53°27' W 003°01'0 0.0
2019-Dec-14 15:00N 53°27' W 003°01'0 0.8
2019-Dec-14 14:30N 53°27' W 003°01'0 0.0
2019-Dec-14 12:29N 53°27' W 003°01'0 0.0
2019-Dec-14 10:28N 53°27' W 003°01'0 0.0
2019-Dec-14 09:30N 53°27' W 003°01'0 0.0
2019-Dec-14 06:59N 53°27' W 003°01'0 0.0
2019-Dec-14 06:29N 53°27' W 003°01'0 0.9
2019-Dec-14 06:00N 53°27' W 003°01'1 1.2
2019-Dec-14 05:00N 53°28' W 003°03'713.2
2019-Dec-14 04:30N 53°31' W 003°12'1817.5
2019-Dec-14 03:30N 53°31' W 003°41'917.5
2019-Dec-14 03:00N 53°33' W 003°56'8017.7
2019-Dec-13 22:30N 53°21' W 006°08'3 1.5
2019-Dec-13 20:23N 53°21' W 006°13'0 0.1
2019-Dec-13 18:30N 53°21' W 006°13'9216.8
2019-Dec-13 13:00N 53°33' W 003°40'24 5.2
2019-Dec-13 08:28N 53°27' W 003°01'0 0.0
2019-Dec-13 07:00N 53°27' W 003°01'0 0.0
2019-Dec-13 06:30N 53°27' W 003°01'0 0.9
2019-Dec-13 06:00N 53°27' W 003°01'11 7.4
2019-Dec-13 04:30N 53°31' W 003°18'10512.1
2019-Dec-12 19:50N 53°21' W 006°13'8911.5
2019-Dec-12 12:06N 53°33' W 003°45'2119.1
2019-Dec-12 11:00N 53°32' W 003°10'714.4
2019-Dec-12 10:30N 53°27' W 003°01'1 0.3
2019-Dec-12 08:58N 53°27' W 003°01'0 0.0
2019-Dec-12 07:30N 53°27' W 003°01'0 0.0
2019-Dec-12 06:01N 53°27' W 003°01'9 5.7
2019-Dec-12 04:30N 53°31' W 003°14'10417.4
2019-Dec-11 22:31N 53°21' W 006°08'3 2.1
2019-Dec-11 21:00N 53°21' W 006°13'0 0.0
2019-Dec-11 19:09N 53°21' W 006°13'11514.1
2019-Dec-11 11:01N 53°27' W 003°01'0 0.1
2019-Dec-11 08:59N 53°27' W 003°01'0 0.0
2019-Dec-11 07:25N 53°27' W 003°01'1 0.4
2019-Dec-11 06:00N 53°27' W 003°01'13 9.0
2019-Dec-11 04:30N 53°31' W 003°23'1515.1
2019-Dec-11 03:30N 53°32' W 003°48'815.4
2019-Dec-11 03:00N 53°33' W 004°01'6915.4
2019-Dec-10 22:33N 53°22' W 005°55'815.2
2019-Dec-10 22:00N 53°21' W 006°08'3 1.7
2019-Dec-10 20:17N 53°21' W 006°13'0 0.0
2019-Dec-10 18:13N 53°21' W 006°13'10 5.9
2019-Dec-10 16:30N 53°23' W 005°57'7417.4
2019-Dec-10 12:15N 53°34' W 003°53'1418.8
2019-Dec-10 11:30N 53°33' W 003°30'1717.0
2019-Dec-10 10:31N 53°28' W 003°03'1 1.2
2019-Dec-10 09:28N 53°27' W 003°01'0 0.0
2019-Dec-10 08:58N 53°27' W 003°01'0 0.0
2019-Dec-10 06:30N 53°27' W 003°01'1 0.3
2019-Dec-10 04:31N 53°27' W 003°02'1312.9
2019-Dec-10 03:30N 53°31' W 003°22'815.3
2019-Dec-10 03:00N 53°31' W 003°35'1515.3
2019-Dec-10 02:00N 53°33' W 004°01'7217.3
2019-Dec-09 21:51N 53°21' W 005°60'8 9.4
2019-Dec-09 21:00N 53°21' W 006°13'0 0.0
2019-Dec-09 20:30N 53°21' W 006°13'0 0.0
2019-Dec-09 19:50N 53°21' W 006°13'0 0.0
2019-Dec-09 17:46N 53°21' W 006°13'0 0.0
2019-Dec-09 06:46N 53°21' W 006°13'0 0.0
2019-Dec-09 04:18N 53°21' W 006°13'0 0.0
2019-Dec-09 03:30N 53°21' W 006°13'0 0.0
2019-Dec-08 22:28N 53°21' W 006°13'0 0.0
2019-Dec-08 20:30N 53°21' W 006°13'0 0.0
2019-Dec-08 19:53N 53°21' W 006°13'0 0.0
2019-Dec-08 17:50N 53°21' W 006°13'2 2.0
2019-Dec-08 17:00N 53°21' W 006°10'9616.1
2019-Dec-08 11:01N 53°33' W 003°30'1716.6
2019-Dec-08 10:01N 53°28' W 003°03'2 1.6
2019-Dec-08 08:59N 53°27' W 003°01'15 2.7
2019-Dec-08 03:31N 53°31' W 003°25'817.0
2019-Dec-08 03:01N 53°31' W 003°39'917.1
2019-Dec-08 02:31N 53°31' W 003°54'8416.7
2019-Dec-07 21:30N 53°21' W 006°13'0 0.0
2019-Dec-07 20:30N 53°21' W 006°13'11411.4
2019-Dec-07 10:31N 53°28' W 003°03'1 1.1
2019-Dec-07 09:30N 53°27' W 003°01'0 0.0
2019-Dec-07 08:27N 53°27' W 003°01'0 0.0
2019-Dec-07 07:00N 53°27' W 003°01'0 0.0
2019-Dec-07 06:29N 53°27' W 003°01'1 0.3
2019-Dec-07 04:31N 53°27' W 003°02'2617.2
2019-Dec-07 03:01N 53°31' W 003°45'8916.1
2019-Dec-06 21:30N 53°21' W 006°13'0 0.0
2019-Dec-06 20:54N 53°21' W 006°13'0 0.0
2019-Dec-06 20:00N 53°21' W 006°13'0 0.0
2019-Dec-06 19:29N 53°21' W 006°13'0 0.0
2019-Dec-06 17:53N 53°21' W 006°13'2 2.2
2019-Dec-06 17:00N 53°21' W 006°10'1615.3
2019-Dec-06 15:57N 53°25' W 005°44'6916.8
2019-Dec-06 11:52N 53°34' W 003°50'1618.7
2019-Dec-06 11:00N 53°33' W 003°22'14 3.4
2019-Dec-06 06:59N 53°27' W 003°01'0 0.0
2019-Dec-06 06:29N 53°27' W 003°01'2 1.0
2019-Dec-06 04:31N 53°28' W 003°04'10817.9
2019-Dec-05 22:30N 53°20' W 006°04'6 1.8
2019-Dec-05 19:30N 53°21' W 006°13'0 0.0
2019-Dec-05 18:18N 53°21' W 006°13'2 2.5
2019-Dec-05 17:30N 53°21' W 006°10'8116.3
2019-Dec-05 12:32N 53°34' W 003°55'33 9.3
2019-Dec-05 08:59N 53°27' W 003°01'0 0.0
2019-Dec-05 06:00N 53°27' W 003°01'0 0.6
2019-Dec-05 05:30N 53°27' W 003°01'0 0.4
2019-Dec-05 05:00N 53°27' W 003°01'  

Dump ship's entire track history